Time;durP1;ratioP1;P1;durP2;ratioP2;P2;SDS_P1;SDS_P2;PMS_P1;PMS_P2;Temp;Humidity;BMP_temperature;BMP_pressure;BME280_temperature;BME280_humidity;BME280_pressure;Samples;Min_cycle;Max_cycle;Signal;HPM_P1;HPM_P2
2024/04/16 00:00:13;;;;;;;3.40;3.10;;;;;;;13.02;61.93;92977.59;570456;26;1055;-73
2024/04/16 00:00:28;;;;;;;3.85;3.00;;;;;;;13.02;61.75;92974.81;570464;26;951;-72
2024/04/16 00:00:44;;;;;;;3.63;2.73;;;;;;;12.85;61.82;92953.47;570431;26;861;-72
2024/04/16 00:00:59;;;;;;;3.00;2.80;;;;;;;12.94;62.17;92969.41;570406;26;830;-72
2024/04/16 00:01:15;;;;;;;3.00;2.80;;;;;;;12.88;61.91;92971.72;570465;26;1052;-72
2024/04/16 00:01:31;;;;;;;2.95;2.72;;;;;;;12.87;62.38;92978.53;570225;26;989;-73
2024/04/16 00:01:46;;;;;;;2.80;2.60;;;;;;;12.88;62.65;92979.28;570437;26;834;-73
2024/04/16 00:02:02;;;;;;;3.07;2.80;;;;;;;12.90;62.38;92979.44;566279;26;927;-72
2024/04/16 00:02:18;;;;;;;3.22;2.92;;;;;;;12.85;62.21;92970.09;566425;26;1036;-73
2024/04/16 00:02:34;;;;;;;2.97;2.72;;;;;;;12.93;62.44;92986.59;566327;26;850;-73
2024/04/16 00:02:49;;;;;;;6.22;3.00;;;;;;;12.96;62.30;92982.69;566279;26;893;-72
2024/04/16 00:03:06;;;;;;;6.73;2.97;;;;;;;12.98;62.64;92980.06;566505;26;837;-72
2024/04/16 00:03:21;;;;;;;3.17;2.85;;;;;;;13.00;62.14;92973.94;562762;26;866;-73
2024/04/16 00:03:37;;;;;;;3.10;2.83;;;;;;;12.95;62.19;92972.88;562694;26;861;-73
2024/04/16 00:03:52;;;;;;;3.00;2.70;;;;;;;12.97;62.34;92972.34;563761;26;814;-72
2024/04/16 00:04:08;;;;;;;2.80;2.60;;;;;;;12.90;62.15;92974.63;566425;26;826;-72
2024/04/16 00:04:23;;;;;;;2.92;2.65;;;;;;;12.86;62.68;92979.84;566328;26;952;-72
2024/04/16 00:04:39;;;;;;;3.57;2.73;;;;;;;12.79;62.84;92977.94;566480;26;843;-73
2024/04/16 00:04:54;;;;;;;3.28;2.65;;;;;;;12.76;62.51;92972.78;566345;26;890;-73
2024/04/16 00:05:10;;;;;;;3.00;2.50;;;;;;;12.74;62.86;92983.72;567233;26;794;-72
2024/04/16 00:05:25;;;;;;;2.90;2.47;;;;;;;12.74;63.47;92983.72;570428;26;1027;-72
2024/04/16 00:05:41;;;;;;;3.05;2.75;;;;;;;12.72;63.23;92986.31;570263;26;842;-72
2024/04/16 00:05:56;;;;;;;3.28;2.92;;;;;;;12.75;63.26;92976.88;570336;26;880;-72
2024/04/16 00:06:12;;;;;;;3.00;2.70;;;;;;;12.77;62.98;92971.50;566367;26;883;-72
2024/04/16 00:06:27;;;;;;;2.70;2.50;;;;;;;12.79;63.38;92975.16;566426;26;796;-72
2024/04/16 00:06:43;;;;;;;2.60;2.40;;;;;;;12.82;62.56;92982.31;566407;26;956;-72
2024/04/16 00:06:58;;;;;;;2.70;2.50;;;;;;;12.80;63.13;92978.63;566292;26;794;-72
2024/04/16 00:07:14;;;;;;;2.88;2.63;;;;;;;12.71;63.30;92982.09;566479;26;859;-72
2024/04/16 00:07:29;;;;;;;2.90;2.60;;;;;;;12.56;63.47;92966.41;566483;26;948;-72
2024/04/16 00:07:45;;;;;;;3.35;2.67;;;;;;;12.58;63.90;92979.69;566367;26;941;-72
2024/04/16 00:08:00;;;;;;;3.27;2.70;;;;;;;12.51;63.89;92975.72;566969;26;876;-72
2024/04/16 00:08:16;;;;;;;3.15;2.85;;;;;;;12.46;64.27;92975.94;570173;26;805;-72
2024/04/16 00:08:31;;;;;;;3.00;2.73;;;;;;;12.42;64.26;92976.38;570530;26;826;-72
2024/04/16 00:08:50;;;;;;;2.70;2.50;;;;;;;12.40;64.69;92973.44;570434;26;830;-72
2024/04/16 00:09:05;;;;;;;3.00;2.65;;;;;;;12.36;64.92;92975.91;570372;26;901;-72
2024/04/16 00:09:21;;;;;;;3.15;2.85;;;;;;;12.39;65.21;92982.31;570406;26;929;-72
2024/04/16 00:09:36;;;;;;;3.13;2.80;;;;;;;12.42;64.60;92972.88;570317;26;786;-72
2024/04/16 00:09:52;;;;;;;2.95;2.65;;;;;;;12.46;64.67;92987.03;570245;26;872;-72
2024/04/16 00:10:07;;;;;;;3.00;2.70;;;;;;;12.49;64.33;92983.84;570383;26;894;-72
2024/04/16 00:10:23;;;;;;;3.05;2.75;;;;;;;12.52;64.47;92987.50;570309;26;1004;-72
2024/04/16 00:10:39;;;;;;;3.10;2.80;;;;;;;12.55;64.23;92981.56;570447;26;1263;-72
2024/04/16 00:11:02;;;;;;;2.83;2.63;;;;;;;12.60;64.12;92977.06;570177;26;936;-72
2024/04/16 00:11:17;;;;;;;3.30;2.83;;;;;;;12.64;63.89;92978.13;570343;26;1000;-72
2024/04/16 00:11:33;;;;;;;3.77;2.77;;;;;;;12.67;64.01;92979.72;570361;26;849;-73
2024/04/16 00:11:48;;;;;;;3.30;2.90;;;;;;;12.70;63.71;92978.59;570545;26;802;-72
2024/04/16 00:12:04;;;;;;;3.13;2.83;;;;;;;12.73;63.53;92982.25;570370;26;805;-72
2024/04/16 00:12:19;;;;;;;3.63;2.53;;;;;;;12.76;63.62;92967.25;570457;26;806;-72
2024/04/16 00:12:35;;;;;;;4.20;2.43;;;;;;;12.78;63.02;92975.72;570374;26;900;-72
2024/04/16 00:12:50;;;;;;;3.33;2.30;;;;;;;12.80;63.37;92976.59;570483;26;826;-72
2024/04/16 00:13:06;;;;;;;3.47;2.60;;;;;;;12.82;62.91;92973.28;570444;26;805;-72
2024/04/16 00:13:21;;;;;;;3.35;2.88;;;;;;;12.84;62.91;92979.69;570491;26;798;-72
2024/04/16 00:13:37;;;;;;;3.10;2.80;;;;;;;12.86;63.40;92979.13;570519;26;869;-72
2024/04/16 00:13:52;;;;;;;3.15;2.85;;;;;;;12.86;63.21;92970.81;570264;26;872;-72
2024/04/16 00:14:08;;;;;;;2.93;2.73;;;;;;;12.86;62.99;92977.06;570436;26;924;-73
2024/04/16 00:14:23;;;;;;;2.97;2.42;;;;;;;12.88;63.23;92973.75;566397;26;877;-72
2024/04/16 00:14:39;;;;;;;3.33;2.40;;;;;;;12.89;62.87;92969.66;566468;26;1011;-72
2024/04/16 00:14:54;;;;;;;3.13;2.83;;;;;;;12.90;63.07;92974.63;566285;26;1855;-72
2024/04/16 00:15:10;;;;;;;3.37;3.00;;;;;;;12.90;62.67;92960.78;566408;26;786;-73
2024/04/16 00:15:26;;;;;;;3.63;2.78;;;;;;;12.89;63.50;92970.38;566344;26;814;-72
2024/04/16 00:15:41;;;;;;;4.13;2.80;;;;;;;12.85;63.37;92959.00;566546;26;798;-72
2024/04/16 00:15:58;;;;;;;3.97;3.00;;;;;;;12.82;63.55;92959.44;566364;26;948;-72
2024/04/16 00:16:14;;;;;;;4.40;3.00;;;;;;;12.77;63.95;92963.91;567313;26;988;-72
2024/04/16 00:16:29;;;;;;;5.25;2.90;;;;;;;12.70;64.16;92956.44;570360;26;905;-72
2024/04/16 00:16:45;;;;;;;4.73;3.10;;;;;;;12.69;64.12;92963.28;570330;26;774;-72
2024/04/16 00:17:00;;;;;;;5.37;3.40;;;;;;;12.67;64.27;92956.84;570476;26;825;-72
2024/04/16 00:17:16;;;;;;;6.93;3.25;;;;;;;12.67;64.36;92963.13;570435;26;849;-72
2024/04/16 00:17:33;;;;;;;5.43;2.90;;;;;;;12.69;64.00;92960.50;570321;26;991;-73
2024/04/16 00:17:48;;;;;;;3.70;3.10;;;;;;;12.70;64.26;92964.00;570375;26;858;-72
2024/04/16 00:18:04;;;;;;;3.60;3.30;;;;;;;12.53;64.30;92941.91;570180;26;937;-72
2024/04/16 00:18:19;;;;;;;3.53;3.17;;;;;;;12.70;64.00;92956.44;570441;26;948;-72
2024/04/16 00:18:35;;;;;;;3.53;2.90;;;;;;;12.75;64.35;92965.78;570471;26;801;-72
2024/04/16 00:18:50;;;;;;;3.10;2.70;;;;;;;12.78;63.82;92961.84;570322;26;976;-72
2024/04/16 00:19:06;;;;;;;2.83;2.60;;;;;;;12.82;64.28;92964.97;570507;26;825;-72
2024/04/16 00:19:21;;;;;;;3.67;2.83;;;;;;;12.83;63.89;92961.63;570284;26;786;-72
2024/04/16 00:19:37;;;;;;;4.00;2.80;;;;;;;12.86;63.78;92968.75;570403;26;812;-72
2024/04/16 00:19:54;;;;;;;3.53;2.75;;;;;;;12.84;64.12;92959.59;570356;26;916;-72
2024/04/16 00:20:10;;;;;;;3.50;3.00;;;;;;;12.84;63.67;92959.59;570542;26;1038;-72
2024/04/16 00:20:26;;;;;;;3.90;3.10;;;;;;;12.85;64.26;92963.81;570390;26;846;-72
2024/04/16 00:20:41;;;;;;;3.45;3.15;;;;;;;12.86;63.99;92960.44;570353;26;951;-72
2024/04/16 00:20:57;;;;;;;3.17;2.87;;;;;;;12.88;63.78;92963.41;570446;26;853;-72
2024/04/16 00:21:12;;;;;;;3.10;2.60;;;;;;;12.90;63.53;92955.25;570425;26;872;-72
2024/04/16 00:21:28;;;;;;;3.45;2.70;;;;;;;12.92;63.60;92957.44;570478;26;818;-72
2024/04/16 00:21:43;;;;;;;3.47;2.73;;;;;;;12.92;63.88;92962.97;570344;26;1099;-72
2024/04/16 00:22:01;;;;;;;2.88;2.63;;;;;;;12.90;63.72;92960.78;566220;26;1505;-72
2024/04/16 00:22:16;;;;;;;3.00;2.70;;;;;;;12.88;63.68;92957.13;566097;26;951;-73
2024/04/16 00:22:31;;;;;;;3.10;2.70;;;;;;;12.83;63.64;92958.09;566433;26;900;-72
2024/04/16 00:22:47;;;;;;;3.47;2.60;;;;;;;12.78;63.73;92962.59;566403;26;810;-72
2024/04/16 00:23:03;;;;;;;3.90;2.50;;;;;;;12.75;63.75;92951.94;566404;26;860;-72
2024/04/16 00:23:18;;;;;;;3.22;2.80;;;;;;;12.73;63.71;92955.28;566466;26;864;-72
2024/04/16 00:23:34;;;;;;;3.30;3.00;;;;;;;12.74;63.80;92962.28;566264;26;798;-72
2024/04/16 00:23:49;;;;;;;2.93;2.73;;;;;;;12.77;63.61;92963.91;566454;26;869;-72
2024/04/16 00:24:05;;;;;;;2.75;2.55;;;;;;;12.78;63.75;92965.38;566717;26;833;-72
2024/04/16 00:24:20;;;;;;;2.70;2.50;;;;;;;12.80;63.71;92967.56;566633;26;783;-72
2024/04/16 00:24:36;;;;;;;3.08;2.53;;;;;;;12.82;63.64;92967.75;566606;26;909;-72
2024/04/16 00:24:51;;;;;;;3.40;2.53;;;;;;;12.82;63.97;92962.91;566532;26;870;-72
2024/04/16 00:25:08;;;;;;;3.03;2.67;;;;;;;12.85;63.81;92958.25;566614;26;850;-72
2024/04/16 00:25:24;;;;;;;3.17;2.88;;;;;;;12.87;63.19;92959.16;566399;26;898;-72
2024/04/16 00:25:39;;;;;;;3.08;2.78;;;;;;;12.89;63.51;92959.31;566652;26;798;-72
2024/04/16 00:25:55;;;;;;;3.10;2.70;;;;;;;12.91;63.12;92961.50;566512;26;929;-72
2024/04/16 00:26:10;;;;;;;3.72;2.83;;;;;;;12.89;63.06;92953.03;566413;26;897;-72
2024/04/16 00:26:26;;;;;;;3.57;2.70;;;;;;;12.89;63.18;92958.56;566431;26;869;-72
2024/04/16 00:26:41;;;;;;;3.03;2.70;;;;;;;12.91;62.97;92958.72;566442;26;961;-72
2024/04/16 00:26:57;;;;;;;4.10;3.00;;;;;;;12.91;62.83;92955.94;566552;26;860;-72
2024/04/16 00:27:12;;;;;;;4.53;3.10;;;;;;;12.91;62.84;92956.69;566701;26;790;-72
2024/04/16 00:27:29;;;;;;;3.10;2.80;;;;;;;12.94;62.79;92958.31;566589;26;906;-72
2024/04/16 00:27:44;;;;;;;3.20;2.90;;;;;;;12.95;62.73;92957.00;566279;26;864;-73
2024/04/16 00:28:00;;;;;;;3.20;2.90;;;;;;;12.96;62.81;92957.72;566621;26;826;-72
2024/04/16 00:28:15;;;;;;;3.17;2.88;;;;;;;12.96;63.04;92954.97;566633;26;944;-72
2024/04/16 00:28:31;;;;;;;3.17;2.80;;;;;;;12.78;62.88;92920.31;566615;26;1089;-72
2024/04/16 00:28:46;;;;;;;3.05;2.75;;;;;;;12.97;62.44;92952.94;566569;26;893;-72
2024/04/16 00:29:02;;;;;;;3.10;2.80;;;;;;;12.97;62.40;92950.91;566590;26;806;-72
2024/04/16 00:29:17;;;;;;;3.20;2.90;;;;;;;12.97;62.67;92948.13;566551;26;929;-72
2024/04/16 00:29:33;;;;;;;3.20;2.87;;;;;;;12.99;62.87;92953.09;566387;26;921;-72
2024/04/16 00:29:48;;;;;;;3.10;2.75;;;;;;;12.99;63.03;92962.13;566689;26;803;-72
2024/04/16 00:30:05;;;;;;;3.00;2.77;;;;;;;12.98;63.03;92955.13;566516;26;1030;-72
2024/04/16 00:30:20;;;;;;;3.72;2.80;;;;;;;12.99;62.90;92956.59;566455;26;1052;-72
2024/04/16 00:30:35;;;;;;;3.67;3.00;;;;;;;13.00;62.88;92960.81;566549;26;835;-72
2024/04/16 00:30:51;;;;;;;3.37;3.07;;;;;;;13.00;62.77;92955.28;566553;26;806;-72
2024/04/16 00:31:06;;;;;;;3.17;2.80;;;;;;;13.01;62.37;92956.75;566508;26;921;-72
2024/04/16 00:31:22;;;;;;;3.07;2.50;;;;;;;13.01;62.84;92948.44;566593;26;818;-72
2024/04/16 00:31:37;;;;;;;2.85;2.60;;;;;;;13.03;62.79;92961.72;566443;26;890;-72
2024/04/16 00:31:53;;;;;;;3.10;2.80;;;;;;;13.02;62.84;92949.16;566451;26;838;-72
2024/04/16 00:32:08;;;;;;;3.10;2.70;;;;;;;13.03;62.72;92950.63;566735;26;815;-72
2024/04/16 00:32:24;;;;;;;2.67;2.47;;;;;;;13.03;62.70;92953.41;566476;26;850;-72
2024/04/16 00:32:41;;;;;;;2.97;2.67;;;;;;;13.02;62.70;92958.19;566627;26;842;-72
2024/04/16 00:32:57;;;;;;;3.20;2.90;;;;;;;13.03;62.42;92961.72;566647;26;870;-72
2024/04/16 00:33:12;;;;;;;3.17;2.90;;;;;;;13.02;62.46;92949.88;566577;26;806;-72
2024/04/16 00:33:28;;;;;;;3.22;2.97;;;;;;;13.03;62.51;92953.41;566640;26;787;-72
2024/04/16 00:33:44;;;;;;;3.28;3.00;;;;;;;13.02;62.55;92960.97;566415;26;846;-72
2024/04/16 00:33:59;;;;;;;3.37;3.07;;;;;;;13.02;62.64;92952.66;566658;26;862;-72
2024/04/16 00:34:15;;;;;;;3.25;2.95;;;;;;;12.99;62.45;92953.81;566479;26;962;-72
2024/04/16 00:34:30;;;;;;;2.90;2.70;;;;;;;12.97;62.27;92950.91;566520;26;921;-72
2024/04/16 00:34:46;;;;;;;3.00;2.80;;;;;;;12.98;62.49;92957.88;566465;26;1830;-72
2024/04/16 00:35:01;;;;;;;3.03;2.73;;;;;;;13.00;62.65;92955.28;566598;26;906;-72
2024/04/16 00:35:17;;;;;;;3.40;2.95;;;;;;;13.01;62.20;92953.97;566489;26;1009;-72
2024/04/16 00:35:32;;;;;;;3.97;3.10;;;;;;;13.02;62.13;92958.19;562514;26;807;-72
2024/04/16 00:35:48;;;;;;;3.70;3.07;;;;;;;13.00;62.33;92952.50;562693;26;794;-72
2024/04/16 00:36:03;;;;;;;3.10;2.80;;;;;;;12.98;62.27;92949.56;562486;26;855;-72
2024/04/16 00:36:19;;;;;;;2.90;2.70;;;;;;;12.92;62.67;92954.66;562520;26;857;-72
2024/04/16 00:36:34;;;;;;;3.10;2.80;;;;;;;12.84;62.26;92946.44;562622;26;806;-72
2024/04/16 00:36:50;;;;;;;3.55;2.90;;;;;;;12.76;62.49;92953.41;562602;26;838;-72
2024/04/16 00:37:05;;;;;;;2.93;2.63;;;;;;;12.70;63.34;92952.94;562565;26;849;-72
2024/04/16 00:37:21;;;;;;;2.70;2.50;;;;;;;12.65;63.01;92948.38;563129;26;874;-72
2024/04/16 00:37:36;;;;;;;3.10;2.80;;;;;;;12.64;63.29;92949.69;566538;26;803;-72
2024/04/16 00:37:53;;;;;;;3.47;2.63;;;;;;;12.44;63.45;92920.41;566566;26;933;-72
2024/04/16 00:38:09;;;;;;;4.10;2.75;;;;;;;12.67;63.37;92960.34;566575;26;830;-72
2024/04/16 00:38:25;;;;;;;3.05;2.75;;;;;;;12.70;63.29;92952.94;566543;26;965;-72
2024/04/16 00:38:40;;;;;;;2.67;2.47;;;;;;;12.71;63.32;92957.88;566514;26;913;-72
2024/04/16 00:38:56;;;;;;;2.75;2.55;;;;;;;12.71;63.42;92948.88;566436;26;850;-72
2024/04/16 00:39:12;;;;;;;2.90;2.60;;;;;;;12.68;63.72;92950.00;566694;26;917;-72
2024/04/16 00:39:27;;;;;;;2.80;2.60;;;;;;;12.65;63.38;92953.91;566534;26;839;-72
2024/04/16 00:39:43;;;;;;;2.95;2.70;;;;;;;12.62;63.89;92955.81;566598;26;791;-72
2024/04/16 00:39:59;;;;;;;3.70;3.03;;;;;;;12.64;63.60;92955.22;566529;26;852;-72
2024/04/16 00:40:14;;;;;;;3.13;2.85;;;;;;;12.63;63.54;92960.03;566368;26;846;-72
2024/04/16 00:40:30;;;;;;;3.03;2.80;;;;;;;12.66;63.85;92955.38;566533;26;973;-72
2024/04/16 00:40:45;;;;;;;4.22;2.92;;;;;;;12.68;63.81;92955.53;566586;26;881;-72
2024/04/16 00:41:00;;;;;;;4.03;2.97;;;;;;;12.70;63.83;92948.13;566426;26;872;-72
2024/04/16 00:41:16;;;;;;;3.03;2.72;;;;;;;12.71;63.55;92960.66;566425;26;902;-73
2024/04/16 00:41:31;;;;;;;3.17;2.87;;;;;;;12.70;63.58;92955.69;566592;26;783;-73
2024/04/16 00:41:47;;;;;;;3.33;3.03;;;;;;;12.71;63.36;92959.94;566545;26;874;-72
2024/04/16 00:42:03;;;;;;;3.30;2.90;;;;;;;12.65;63.73;92948.38;566376;26;906;-72
2024/04/16 00:42:19;;;;;;;3.83;2.90;;;;;;;12.67;63.72;92952.03;566572;26;898;-72
2024/04/16 00:42:34;;;;;;;3.67;3.10;;;;;;;12.68;63.52;92955.53;566487;26;838;-72
2024/04/16 00:42:52;;;;;;;3.40;2.83;;;;;;;12.53;63.77;92928.78;566553;26;842;-72
2024/04/16 00:43:18;;;;;;;2.92;2.63;;;;;;;12.73;63.77;92955.28;566654;26;965;-72
2024/04/16 00:43:34;;;;;;;3.70;3.00;;;;;;;12.77;63.63;92952.09;566546;26;878;-72
2024/04/16 00:43:49;;;;;;;3.33;3.03;;;;;;;12.77;63.62;92950.06;566546;26;917;-72
2024/04/16 00:44:05;;;;;;;3.30;2.73;;;;;;;12.77;63.74;92952.09;566625;26;928;-72
2024/04/16 00:44:20;;;;;;;4.55;3.00;;;;;;;12.75;64.04;92944.38;566445;26;901;-72
2024/04/16 00:44:36;;;;;;;4.27;3.17;;;;;;;12.73;63.42;92946.25;566453;26;893;-72
2024/04/16 00:44:51;;;;;;;3.50;2.95;;;;;;;12.72;63.73;92947.53;567629;26;1243;-72
2024/04/16 00:45:09;;;;;;;3.20;2.90;;;;;;;12.46;63.98;92912.25;570345;26;815;-72
2024/04/16 00:45:26;;;;;;;3.47;3.05;;;;;;;12.54;64.17;92946.16;570337;26;905;-72
2024/04/16 00:45:50;;;;;;;3.03;2.72;;;;;;;12.42;64.62;92947.94;570295;26;957;-72
2024/04/16 00:46:06;;;;;;;3.40;2.95;;;;;;;12.43;64.85;92950.13;566274;26;878;-72
2024/04/16 00:46:22;;;;;;;3.65;3.00;;;;;;;12.43;64.63;92946.66;562428;26;988;-72
2024/04/16 00:46:37;;;;;;;3.42;2.90;;;;;;;12.42;65.01;92945.91;562576;26;858;-72
2024/04/16 00:46:53;;;;;;;3.00;2.70;;;;;;;12.45;64.68;92949.56;562567;26;831;-72
2024/04/16 00:47:10;;;;;;;3.17;2.88;;;;;;;12.49;64.86;92944.34;562576;26;874;-72
2024/04/16 00:47:26;;;;;;;4.25;3.35;;;;;;;12.52;64.32;92940.41;558710;26;858;-72
2024/04/16 00:47:41;;;;;;;4.27;3.20;;;;;;;12.54;64.47;92944.09;558878;26;866;-72
2024/04/16 00:47:57;;;;;;;3.67;2.78;;;;;;;12.57;64.37;92933.91;556412;26;913;-74
2024/04/16 00:48:13;;;;;;;3.53;2.80;;;;;;;12.59;64.63;92937.56;560099;26;854;-72
2024/04/16 00:48:28;;;;;;;3.27;2.97;;;;;;;12.64;64.35;92938.63;562527;26;826;-72
2024/04/16 00:48:44;;;;;;;3.22;2.95;;;;;;;12.64;64.62;92933.81;562634;26;822;-72
2024/04/16 00:48:59;;;;;;;3.00;2.80;;;;;;;12.61;64.51;92937.72;562666;26;854;-72
2024/04/16 00:49:15;;;;;;;3.00;2.70;;;;;;;12.61;65.00;92931.44;559852;26;854;-72
2024/04/16 00:49:31;;;;;;;3.20;2.80;;;;;;;12.43;64.75;92907.91;562529;26;838;-73
2024/04/16 00:49:46;;;;;;;5.33;3.20;;;;;;;12.62;64.54;92930.16;563452;26;959;-72
2024/04/16 00:50:03;;;;;;;5.40;3.20;;;;;;;12.61;65.16;92932.19;566322;26;913;-72
2024/04/16 00:50:18;;;;;;;3.50;3.20;;;;;;;12.60;65.14;92938.31;562623;26;953;-72
2024/04/16 00:50:34;;;;;;;3.60;3.30;;;;;;;12.61;65.09;92936.97;562507;26;846;-72
2024/04/16 00:50:49;;;;;;;3.30;3.00;;;;;;;12.59;65.03;92940.34;562693;26;782;-72
2024/04/16 00:51:05;;;;;;;3.35;3.05;;;;;;;12.51;64.99;92922.34;563473;26;1657;-72
2024/04/16 00:51:21;;;;;;;4.17;3.00;;;;;;;12.60;65.43;92932.75;566153;26;1094;-72
2024/04/16 00:51:36;;;;;;;3.78;2.72;;;;;;;12.62;64.99;92938.47;562346;26;955;-72
2024/04/16 00:51:52;;;;;;;3.60;3.20;;;;;;;12.65;65.14;92937.28;562615;26;826;-72
2024/04/16 00:52:08;;;;;;;3.65;3.30;;;;;;;12.65;65.41;92935.25;563711;26;835;-72
2024/04/16 00:52:24;;;;;;;3.58;3.25;;;;;;;12.67;65.15;92934.69;566188;26;889;-72
2024/04/16 00:52:40;;;;;;;4.23;3.43;;;;;;;12.69;65.15;92937.63;566271;26;917;-72
2024/04/16 00:52:55;;;;;;;4.75;3.30;;;;;;;12.71;64.64;92940.56;562524;26;936;-72
2024/04/16 00:53:11;;;;;;;4.78;3.10;;;;;;;12.73;64.77;92937.94;558923;26;874;-72
2024/04/16 00:53:29;;;;;;;3.30;3.00;;;;;;;12.75;64.81;92940.88;556293;26;850;-72
2024/04/16 00:53:45;;;;;;;3.35;3.05;;;;;;;12.75;64.89;92944.38;558754;26;910;-72
2024/04/16 00:54:02;;;;;;;3.50;3.10;;;;;;;12.77;64.70;92938.25;558850;26;914;-74
2024/04/16 00:54:17;;;;;;;3.78;2.83;;;;;;;12.71;65.20;92938.50;559231;26;855;-72
2024/04/16 00:54:33;;;;;;;3.60;2.60;;;;;;;12.61;65.08;92934.22;555538;26;811;-72
2024/04/16 00:54:49;;;;;;;3.50;2.90;;;;;;;12.66;65.17;92930.47;557283;26;1846;-72
2024/04/16 00:55:05;;;;;;;3.28;2.95;;;;;;;12.64;65.41;92935.84;557332;26;847;-72
2024/04/16 00:55:21;;;;;;;3.30;2.72;;;;;;;12.66;65.22;92941.53;561291;26;837;-72
2024/04/16 00:55:37;;;;;;;3.10;2.80;;;;;;;12.68;65.38;92936.16;559334;26;803;-72
2024/04/16 00:55:52;;;;;;;3.28;2.97;;;;;;;12.69;64.84;92932.81;559189;26;945;-72
2024/04/16 00:56:08;;;;;;;3.40;3.10;;;;;;;12.64;65.13;92933.81;559338;26;980;-72
2024/04/16 00:56:23;;;;;;;3.22;2.92;;;;;;;12.64;65.32;92939.34;560229;26;948;-72
2024/04/16 00:56:39;;;;;;;3.27;2.83;;;;;;;12.62;64.94;92928.13;563009;26;782;-72
2024/04/16 00:56:56;;;;;;;3.03;2.72;;;;;;;12.68;64.87;92930.63;563780;26;949;-72
2024/04/16 00:57:11;;;;;;;2.85;2.63;;;;;;;12.70;64.41;92931.50;566818;26;843;-72
2024/04/16 00:57:27;;;;;;;3.03;2.73;;;;;;;12.72;64.69;92928.16;562974;26;807;-72
2024/04/16 00:57:42;;;;;;;4.30;2.90;;;;;;;12.70;64.61;92931.50;560172;26;947;-72
2024/04/16 00:57:58;;;;;;;3.83;2.97;;;;;;;12.73;64.58;92930.34;563014;26;858;-72
2024/04/16 00:58:16;;;;;;;3.20;2.90;;;;;;;12.75;64.26;92927.75;562788;26;992;-72
2024/04/16 00:58:35;;;;;;;3.28;2.70;;;;;;;12.77;64.59;92935.47;562995;26;878;-72
2024/04/16 00:58:50;;;;;;;4.07;2.60;;;;;;;12.79;64.49;92927.31;562952;26;947;-72
2024/04/16 00:59:07;;;;;;;4.55;2.45;;;;;;;12.81;64.37;92930.97;563027;26;932;-72
2024/04/16 00:59:23;;;;;;;4.40;2.60;;;;;;;12.84;64.50;92923.56;561618;26;946;-72
2024/04/16 00:59:39;;;;;;;3.40;2.88;;;;;;;12.85;64.22;92925.75;565533;26;989;-73
2024/04/16 00:59:56;;;;;;;3.25;2.95;;;;;;;12.88;64.22;92923.88;566712;26;869;-73
2024/04/16 01:00:11;;;;;;;3.08;2.72;;;;;;;12.90;64.23;92932.34;566796;26;916;-72
2024/04/16 01:00:27;;;;;;;3.95;2.70;;;;;;;12.93;64.31;92928.41;566732;26;846;-73
2024/04/16 01:00:43;;;;;;;3.53;2.83;;;;;;;12.95;64.19;92929.28;566654;26;903;-73
2024/04/16 01:00:59;;;;;;;5.03;2.80;;;;;;;12.98;64.32;92935.72;566620;26;926;-72
2024/04/16 01:01:14;;;;;;;4.97;2.70;;;;;;;12.99;63.63;92934.44;566774;26;901;-72
2024/04/16 01:01:30;;;;;;;2.92;2.60;;;;;;;13.02;63.77;92932.50;566599;26;850;-72
2024/04/16 01:01:45;;;;;;;2.60;2.40;;;;;;;13.03;63.61;92929.19;563014;26;838;-74
2024/04/16 01:02:01;;;;;;;2.70;2.47;;;;;;;13.05;63.58;92931.41;562958;26;838;-73
2024/04/16 01:02:16;;;;;;;4.67;2.87;;;;;;;13.07;63.60;92935.06;562867;26;822;-72
2024/04/16 01:02:33;;;;;;;4.60;2.83;;;;;;;13.08;63.40;92933.75;562881;26;858;-73
2024/04/16 01:02:48;;;;;;;3.25;2.53;;;;;;;13.08;63.69;92925.44;562964;26;834;-73
2024/04/16 01:03:04;;;;;;;2.80;2.40;;;;;;;13.10;63.23;92930.41;562847;26;833;-73
2024/04/16 01:03:19;;;;;;;3.65;2.58;;;;;;;13.11;62.69;92935.38;564050;26;937;-72
2024/04/16 01:03:35;;;;;;;4.63;2.60;;;;;;;13.10;62.81;92928.38;564023;26;767;-72
2024/04/16 01:03:51;;;;;;;3.53;2.40;;;;;;;13.09;62.65;92932.44;566477;26;905;-72
2024/04/16 01:04:06;;;;;;;2.50;2.30;;;;;;;13.06;62.68;92930.81;566624;26;1621;-72
2024/04/16 01:04:25;;;;;;;2.58;2.38;;;;;;;13.07;63.03;92929.53;566807;26;802;-72
2024/04/16 01:04:40;;;;;;;3.65;2.58;;;;;;;13.10;62.73;92935.94;566699;26;989;-74
2024/04/16 01:04:56;;;;;;;4.25;2.60;;;;;;;13.13;62.57;92938.28;566733;26;964;-72
2024/04/16 01:05:11;;;;;;;2.77;2.40;;;;;;;13.16;62.62;92936.41;566623;26;908;-72
2024/04/16 01:05:27;;;;;;;2.33;2.13;;;;;;;13.18;62.51;92937.31;566870;26;933;-74
2024/04/16 01:05:43;;;;;;;2.53;2.33;;;;;;;13.17;62.11;92927.50;566977;26;848;-72
2024/04/16 01:05:59;;;;;;;2.80;2.60;;;;;;;13.22;61.35;92934.09;566970;26;785;-73
2024/04/16 01:06:17;;;;;;;2.63;2.42;;;;;;;13.24;61.54;92928.69;567055;26;825;-73
2024/04/16 01:06:33;;;;;;;3.27;2.73;;;;;;;13.15;61.65;92910.00;566724;26;865;-73
2024/04/16 01:06:52;;;;;;;3.35;2.63;;;;;;;13.31;61.53;92927.84;567107;26;900;-72
2024/04/16 01:07:08;;;;;;;2.78;2.53;;;;;;;13.33;61.23;92925.22;566929;26;947;-72
2024/04/16 01:07:24;;;;;;;3.15;2.85;;;;;;;13.36;61.21;92927.56;566938;26;849;-72
2024/04/16 01:07:39;;;;;;;3.55;2.65;;;;;;;13.38;61.09;92921.47;566785;26;785;-72
2024/04/16 01:07:55;;;;;;;4.13;2.58;;;;;;;13.41;60.96;92926.56;566514;26;845;-73
2024/04/16 01:08:11;;;;;;;3.30;2.53;;;;;;;13.46;60.99;92924.81;566710;26;943;-72
2024/04/16 01:08:27;;;;;;;2.63;2.42;;;;;;;13.49;60.71;92929.94;566853;26;912;-72
2024/04/16 01:08:42;;;;;;;3.20;2.50;;;;;;;13.54;60.84;92934.47;566798;26;829;-73
2024/04/16 01:08:58;;;;;;;3.80;2.60;;;;;;;13.59;60.59;92927.94;566646;26;933;-72
2024/04/16 01:09:14;;;;;;;2.53;2.30;;;;;;;13.62;60.47;92932.31;566573;26;1006;-72
2024/04/16 01:09:29;;;;;;;2.63;2.33;;;;;;;13.67;60.58;92925.00;566836;26;1102;-72
2024/04/16 01:09:44;;;;;;;2.97;2.40;;;;;;;13.71;59.89;92902.41;566893;26;949;-73
2024/04/16 01:10:00;;;;;;;6.07;2.75;;;;;;;13.75;59.72;92928.41;566930;26;955;-73
2024/04/16 01:10:16;;;;;;;9.90;3.67;;;;;;;13.81;59.86;92928.84;566870;26;901;-73
2024/04/16 01:10:39;;;;;;;7.88;3.47;;;;;;;13.89;59.13;92925.91;567007;26;782;-73
2024/04/16 01:10:55;;;;;;;4.15;2.90;;;;;;;13.94;58.86;92925.63;563057;26;1183;-72
2024/04/16 01:11:10;;;;;;;4.38;2.92;;;;;;;14.00;58.76;92925.34;563254;26;916;-72
2024/04/16 01:11:27;;;;;;;4.10;2.60;;;;;;;14.06;58.84;92920.22;563227;26;822;-73
2024/04/16 01:11:42;;;;;;;2.67;2.30;;;;;;;14.11;58.28;92919.94;563119;26;984;-73
2024/04/16 01:11:58;;;;;;;2.93;2.30;;;;;;;14.18;58.02;92919.06;563071;26;1056;-73
2024/04/16 01:12:14;;;;;;;4.15;2.50;;;;;;;14.24;58.29;92922.28;563144;26;845;-72
2024/04/16 01:12:29;;;;;;;4.53;2.58;;;;;;;14.30;57.74;92925.50;563128;26;802;-72
2024/04/16 01:12:45;;;;;;;4.07;2.60;;;;;;;14.35;57.80;92923.75;563302;26;864;-72
2024/04/16 01:13:00;;;;;;;4.80;2.80;;;;;;;14.39;57.73;92919.22;563202;26;851;-72
2024/04/16 01:13:16;;;;;;;4.40;2.63;;;;;;;14.35;57.65;92904.31;563227;26;802;-72
2024/04/16 01:13:31;;;;;;;4.53;2.53;;;;;;;14.50;57.80;92919.94;563139;26;956;-72
2024/04/16 01:13:47;;;;;;;3.90;2.60;;;;;;;14.53;57.44;92919.47;563161;26;905;-72
2024/04/16 01:14:02;;;;;;;3.20;2.60;;;;;;;14.58;57.51;92926.78;563109;26;908;-73
2024/04/16 01:14:17;;;;;;;3.00;2.60;;;;;;;14.63;57.25;92923.00;563114;26;952;-73
2024/04/16 01:14:33;;;;;;;4.00;2.60;;;;;;;14.67;57.44;92922.53;563087;26;778;-72
2024/04/16 01:14:48;;;;;;;4.60;2.70;;;;;;;14.70;56.58;92916.53;563036;26;1833;-72
2024/04/16 01:15:04;;;;;;;3.87;2.73;;;;;;;14.67;56.70;92908.63;563176;26;858;-72
2024/04/16 01:15:20;;;;;;;3.00;2.60;;;;;;;14.75;56.56;92926.59;563331;26;782;-73
2024/04/16 01:15:35;;;;;;;3.07;2.70;;;;;;;14.81;56.37;92920.75;563175;26;843;-73
2024/04/16 01:15:51;;;;;;;4.00;2.75;;;;;;;14.84;56.17;92920.31;563204;26;805;-72
2024/04/16 01:16:06;;;;;;;3.30;2.57;;;;;;;14.89;56.11;92924.09;563112;26;829;-72
2024/04/16 01:16:22;;;;;;;2.80;2.42;;;;;;;14.92;56.26;92922.94;563181;26;822;-72
2024/04/16 01:16:38;;;;;;;3.35;2.63;;;;;;;14.96;55.39;92923.19;563047;26;913;-72
2024/04/16 01:16:54;;;;;;;4.17;2.90;;;;;;;14.99;55.68;92925.53;563169;26;972;-72
2024/04/16 01:17:11;;;;;;;3.90;2.88;;;;;;;15.04;55.43;92920.97;563184;26;875;-73
2024/04/16 01:17:26;;;;;;;3.13;2.67;;;;;;;15.07;55.59;92919.81;563144;26;833;-73